Terminal Aerodrome Forecast
Issued by NWS Austin/San Antonio, TX

Home | Current Version | Previous Version | Text Only | Print | Product List | Glossary On
Versions: 1 2 3 4 5 6 7 8 9 10 11 12 13 14 15 16 17 18 19 20 21 22
000
FTUS44 KEWX 061947 AAC
TAFDRT
TAF AMD
KDRT 061947Z 0620/0718 14015KT P6SM SCT027 SCT040 BKN080
     FM062230 14015KT P6SM VCTS BKN040CB
     FM070400 13013KT P6SM BKN015
     FM070900 12012KT 5SM BR OVC007
     FM071700 12012KT P6SM OVC012=

USA.gov is the U.S. government's official web portal to all federal, state and local government web resources and services.